createdAt,value
2019-05-26T00:00:15.867Z,100.00
2019-05-26T00:02:44.272Z,100.00
2019-05-26T00:05:12.794Z,100.00
2019-05-26T00:07:41.183Z,100.00
2019-05-26T00:10:10.281Z,100.00
2019-05-26T00:12:39.013Z,100.00
2019-05-26T00:15:07.711Z,100.00
2019-05-26T00:17:36.117Z,100.00
2019-05-26T00:20:07.192Z,100.00
2019-05-26T00:22:35.590Z,100.00
2019-05-26T00:25:05.397Z,100.00
2019-05-26T00:27:33.791Z,100.00
2019-05-26T00:30:02.222Z,100.00
2019-05-26T00:32:30.624Z,100.00
2019-05-26T00:34:59.057Z,100.00
2019-05-26T00:37:27.469Z,100.00
2019-05-26T00:39:55.980Z,100.00
2019-05-26T00:42:24.384Z,100.00
2019-05-26T00:44:52.790Z,100.00
2019-05-26T00:47:21.294Z,100.00
2019-05-26T00:49:49.692Z,100.00
2019-05-26T00:52:18.121Z,100.00
2019-05-26T00:54:46.523Z,100.00
2019-05-26T00:57:14.960Z,100.00
2019-05-26T00:59:43.355Z,100.00
2019-05-26T01:02:17.606Z,100.00
2019-05-26T01:04:46.010Z,100.00
2019-05-26T01:07:14.508Z,100.00
2019-05-26T01:09:42.924Z,100.00
2019-05-26T01:12:11.406Z,100.00
2019-05-26T01:14:39.808Z,100.00
2019-05-26T01:17:08.306Z,100.00
2019-05-26T01:19:36.708Z,100.00
2019-05-26T01:22:05.140Z,100.00
2019-05-26T01:24:33.544Z,100.00
2019-05-26T01:27:01.982Z,100.00
2019-05-26T01:29:30.379Z,100.00
2019-05-26T01:31:58.809Z,100.00
2019-05-26T01:34:27.221Z,100.00
2019-05-26T01:36:55.794Z,100.00
2019-05-26T01:39:24.265Z,100.00
2019-05-26T01:41:52.694Z,100.00
2019-05-26T01:44:21.096Z,100.00
2019-05-26T01:46:49.529Z,100.00
2019-05-26T01:49:17.935Z,100.00
2019-05-26T01:51:46.363Z,100.00
2019-05-26T01:54:14.770Z,100.00
2019-05-26T01:56:43.167Z,100.00
2019-05-26T01:59:11.608Z,100.00
2019-05-26T02:01:40.048Z,100.00
2019-05-26T02:04:08.475Z,100.00
2019-05-26T02:06:36.882Z,100.00
2019-05-26T02:09:07.726Z,100.00
2019-05-26T02:11:36.129Z,100.00
2019-05-26T02:14:04.630Z,100.00
2019-05-26T02:16:33.035Z,100.00
2019-05-26T02:19:01.518Z,100.00
2019-05-26T02:21:29.950Z,100.00
2019-05-26T02:23:58.376Z,100.00
2019-05-26T02:26:26.782Z,100.00
2019-05-26T02:28:55.212Z,100.00
2019-05-26T02:31:23.687Z,100.00
2019-05-26T02:33:52.117Z,100.00
2019-05-26T02:36:20.518Z,100.00
2019-05-26T02:39:01.348Z,100.00
2019-05-26T02:41:19.074Z,100.00
2019-05-26T02:43:47.503Z,100.00
2019-05-26T02:46:15.898Z,100.00
2019-05-26T02:48:44.335Z,100.00
2019-05-26T02:51:12.740Z,100.00
2019-05-26T02:53:41.172Z,100.00
2019-05-26T02:56:09.644Z,100.00
2019-05-26T02:58:38.071Z,100.00
2019-05-26T03:01:06.479Z,100.00
2019-05-26T03:03:34.981Z,100.00
2019-05-26T03:06:04.120Z,100.00
2019-05-26T03:08:33.345Z,100.00
2019-05-26T03:11:02.194Z,100.00
2019-05-26T03:13:33.608Z,100.00
2019-05-26T03:16:02.985Z,100.00
2019-05-26T03:18:33.081Z,100.00
2019-05-26T03:21:03.329Z,100.00
2019-05-26T03:23:32.375Z,100.00
2019-05-26T03:26:00.871Z,100.00
2019-05-26T03:28:29.282Z,100.00
2019-05-26T03:30:57.707Z,100.00
2019-05-26T03:33:26.122Z,100.00
2019-05-26T03:35:54.542Z,100.00
2019-05-26T03:38:22.947Z,100.00
2019-05-26T03:40:51.510Z,100.00
2019-05-26T03:43:19.913Z,100.00
2019-05-26T03:46:08.519Z,100.00
2019-05-26T03:48:36.913Z,100.00
2019-05-26T03:51:05.352Z,100.00
2019-05-26T03:53:33.757Z,100.00
2019-05-26T03:56:02.261Z,100.00
2019-05-26T03:58:30.728Z,100.00
2019-05-26T04:00:59.157Z,100.00
2019-05-26T04:03:27.575Z,100.00
2019-05-26T04:05:55.996Z,100.00
2019-05-26T04:08:24.407Z,100.00
2019-05-26T04:10:52.902Z,100.00
2019-05-26T04:13:21.546Z,100.00
2019-05-26T04:15:50.004Z,100.00
2019-05-26T04:18:18.393Z,100.00
2019-05-26T04:20:46.822Z,100.00
2019-05-26T04:23:15.224Z,100.00
2019-05-26T04:25:43.651Z,100.00
2019-05-26T04:28:12.066Z,100.00
2019-05-26T04:30:40.483Z,100.00
2019-05-26T04:33:08.887Z,100.00
2019-05-26T04:35:37.315Z,100.00
2019-05-26T04:38:05.729Z,100.00
2019-05-26T04:40:34.160Z,100.00
2019-05-26T04:43:02.567Z,100.00
2019-05-26T04:45:30.993Z,100.00
2019-05-26T04:47:59.603Z,100.00
2019-05-26T04:50:28.040Z,100.00
2019-05-26T04:53:06.063Z,100.00
2019-05-26T04:55:26.581Z,100.00
2019-05-26T04:57:55.000Z,100.00
2019-05-26T05:00:23.476Z,100.00
2019-05-26T05:02:51.908Z,100.00
2019-05-26T05:05:20.375Z,100.00
2019-05-26T05:07:48.811Z,100.00
2019-05-26T05:10:17.291Z,100.00
2019-05-26T05:12:45.894Z,100.00
2019-05-26T05:15:14.441Z,100.00
2019-05-26T05:17:42.882Z,100.00
2019-05-26T05:20:12.205Z,100.00
2019-05-26T05:22:40.637Z,100.00
2019-05-26T05:25:14.658Z,100.00
2019-05-26T05:27:39.290Z,100.00
2019-05-26T05:30:08.830Z,100.00
2019-05-26T05:32:37.272Z,100.00
2019-05-26T05:35:07.792Z,100.00
2019-05-26T05:37:36.230Z,100.00
2019-05-26T05:40:06.871Z,100.00
2019-05-26T05:42:35.304Z,100.00
2019-05-26T05:45:04.852Z,100.00
2019-05-26T05:47:33.294Z,100.00
2019-05-26T05:50:01.721Z,100.00
2019-05-26T05:52:30.132Z,100.00
2019-05-26T05:54:58.538Z,100.00
2019-05-26T05:57:26.973Z,100.00
2019-05-26T05:59:55.385Z,100.00
2019-05-26T06:02:23.816Z,100.00
2019-05-26T06:04:52.227Z,100.00
2019-05-26T06:07:20.669Z,100.00
2019-05-26T06:09:49.082Z,100.00
2019-05-26T06:12:17.494Z,100.00
2019-05-26T06:14:45.942Z,100.00
2019-05-26T06:17:14.341Z,100.00
2019-05-26T06:19:42.774Z,100.00
2019-05-26T06:22:11.181Z,100.00
2019-05-26T06:24:39.610Z,100.00
2019-05-26T06:27:08.016Z,100.00
2019-05-26T06:29:36.459Z,100.00
2019-05-26T06:32:05.449Z,100.00
2019-05-26T06:34:34.147Z,100.00
2019-05-26T06:37:02.555Z,100.00
2019-05-26T06:39:30.987Z,100.00
2019-05-26T06:41:59.392Z,100.00
2019-05-26T06:44:27.829Z,100.00
2019-05-26T06:46:56.310Z,100.00
2019-05-26T06:49:24.738Z,100.00
2019-05-26T06:51:53.150Z,100.00
2019-05-26T06:54:21.585Z,100.00
2019-05-26T06:56:49.994Z,100.00
2019-05-26T06:59:18.422Z,100.00
2019-05-26T07:01:46.826Z,100.00
2019-05-26T07:04:15.261Z,100.00
2019-05-26T07:06:43.677Z,100.00
2019-05-26T07:09:12.108Z,100.00
2019-05-26T07:11:53.789Z,100.00
2019-05-26T07:14:10.680Z,100.00
2019-05-26T07:16:39.100Z,100.00
2019-05-26T07:19:07.599Z,100.00
2019-05-26T07:21:36.007Z,100.00
2019-05-26T07:24:04.723Z,100.00
2019-05-26T07:26:33.203Z,100.00
2019-05-26T07:29:01.609Z,100.00
2019-05-26T07:31:30.043Z,100.00
2019-05-26T07:33:58.452Z,100.00
2019-05-26T07:36:26.890Z,100.00
2019-05-26T07:38:55.311Z,100.00
2019-05-26T07:41:23.806Z,100.00
2019-05-26T07:43:52.212Z,100.00
2019-05-26T07:46:20.646Z,100.00
2019-05-26T07:48:49.053Z,99.59
2019-05-26T07:51:17.481Z,100.00
2019-05-26T07:53:45.895Z,100.00
2019-05-26T07:56:14.395Z,97.23
2019-05-26T07:58:42.801Z,97.93
2019-05-26T08:01:11.233Z,93.68
2019-05-26T08:03:39.636Z,94.19
2019-05-26T08:06:08.070Z,91.45
2019-05-26T08:08:36.475Z,91.09
2019-05-26T08:11:04.979Z,90.63
2019-05-26T08:13:33.385Z,90.51
2019-05-26T08:16:01.806Z,92.63
2019-05-26T08:18:30.275Z,90.42
2019-05-26T08:20:58.712Z,91.82
2019-05-26T08:23:27.117Z,90.21
2019-05-26T08:25:55.659Z,89.77
2019-05-26T08:28:24.333Z,91.39
2019-05-26T08:30:52.766Z,90.25
2019-05-26T08:33:21.242Z,90.00
2019-05-26T08:35:49.686Z,88.44
2019-05-26T08:38:18.093Z,87.04
2019-05-26T08:40:46.521Z,86.36
2019-05-26T08:43:14.926Z,84.06
2019-05-26T08:45:43.396Z,83.96
2019-05-26T08:48:11.853Z,84.51
2019-05-26T08:50:40.234Z,86.14
2019-05-26T08:53:08.670Z,86.99
2019-05-26T08:55:37.074Z,89.00
2019-05-26T08:58:05.851Z,88.82
2019-05-26T09:00:34.341Z,88.59
2019-05-26T09:03:03.610Z,88.61
2019-05-26T09:05:32.015Z,86.17
2019-05-26T09:08:00.447Z,84.08
2019-05-26T09:10:28.926Z,84.81
2019-05-26T09:13:01.293Z,83.38
2019-05-26T09:15:27.490Z,80.05
2019-05-26T09:17:55.913Z,82.41
2019-05-26T09:20:24.455Z,80.58
2019-05-26T09:22:52.889Z,81.71
2019-05-26T09:25:21.302Z,82.84
2019-05-26T09:27:49.730Z,82.07
2019-05-26T09:30:18.679Z,83.29
2019-05-26T09:32:47.170Z,81.45
2019-05-26T09:35:15.637Z,72.83
2019-05-26T09:37:44.064Z,75.38
2019-05-26T09:40:12.706Z,75.26
2019-05-26T09:42:41.135Z,77.02
2019-05-26T09:45:10.186Z,74.66
2019-05-26T09:47:38.682Z,75.98
2019-05-26T09:50:08.320Z,75.78
2019-05-26T09:52:37.289Z,74.69
2019-05-26T09:55:07.601Z,75.57
2019-05-26T09:57:36.227Z,75.71
2019-05-26T10:00:06.540Z,75.02
2019-05-26T10:02:35.085Z,75.43
2019-05-26T10:05:04.852Z,76.44
2019-05-26T10:07:33.256Z,76.05
2019-05-26T10:10:01.689Z,75.32
2019-05-26T10:12:30.095Z,76.41
2019-05-26T10:14:58.526Z,75.52
2019-05-26T10:17:26.937Z,75.65
2019-05-26T10:19:55.360Z,76.34
2019-05-26T10:22:23.764Z,72.69
2019-05-26T10:24:52.195Z,75.36
2019-05-26T10:27:20.600Z,75.70
2019-05-26T10:29:49.027Z,73.32
2019-05-26T10:32:17.433Z,72.29
2019-05-26T10:34:45.868Z,71.46
2019-05-26T10:37:14.266Z,70.65
2019-05-26T10:39:45.043Z,69.25
2019-05-26T10:42:12.834Z,70.11
2019-05-26T10:44:41.257Z,68.51
2019-05-26T10:47:09.665Z,68.39
2019-05-26T10:49:38.416Z,71.02
2019-05-26T10:52:07.014Z,68.94
2019-05-26T10:54:35.448Z,69.90
2019-05-26T10:57:03.923Z,72.32
2019-05-26T10:59:32.357Z,73.28
2019-05-26T11:02:00.766Z,74.04
2019-05-26T11:04:29.194Z,75.55
2019-05-26T11:06:57.597Z,76.76
2019-05-26T11:09:26.035Z,76.59
2019-05-26T11:11:54.434Z,78.94
2019-05-26T11:14:22.842Z,78.19
2019-05-26T11:16:51.491Z,79.36
2019-05-26T11:19:19.963Z,79.84
2019-05-26T11:21:48.395Z,79.30
2019-05-26T11:24:16.799Z,80.04
2019-05-26T11:26:45.299Z,80.32
2019-05-26T11:29:13.703Z,81.09
2019-05-26T11:31:42.125Z,81.20
2019-05-26T11:34:10.525Z,80.49
2019-05-26T11:36:39.031Z,80.02
2019-05-26T11:39:08.372Z,80.53
2019-05-26T11:41:36.805Z,80.48
2019-05-26T11:44:17.042Z,80.96
2019-05-26T11:46:35.432Z,81.95
2019-05-26T11:49:03.901Z,81.93
2019-05-26T11:51:32.336Z,81.97
2019-05-26T11:54:00.733Z,81.84
2019-05-26T11:56:29.170Z,82.77
2019-05-26T11:58:57.572Z,82.40
2019-05-26T12:01:26.001Z,82.60
2019-05-26T12:03:54.406Z,82.63
2019-05-26T12:06:22.907Z,82.98
2019-05-26T12:08:51.323Z,81.20
2019-05-26T12:11:19.827Z,80.29
2019-05-26T12:13:48.229Z,80.47
2019-05-26T12:16:16.664Z,80.56
2019-05-26T12:18:45.061Z,81.99
2019-05-26T12:21:13.478Z,80.45
2019-05-26T12:23:41.906Z,79.97
2019-05-26T12:26:10.318Z,81.81
2019-05-26T12:28:38.820Z,83.00
2019-05-26T12:31:07.231Z,83.75
2019-05-26T12:33:35.658Z,85.97
2019-05-26T12:36:04.427Z,87.97
2019-05-26T12:38:34.499Z,88.85
2019-05-26T12:41:02.914Z,90.13
2019-05-26T12:43:31.341Z,91.13
2019-05-26T12:45:59.745Z,93.24
2019-05-26T12:48:28.180Z,94.47
2019-05-26T12:50:56.655Z,94.97
2019-05-26T12:53:25.087Z,92.38
2019-05-26T12:55:53.484Z,93.82
2019-05-26T12:58:21.914Z,94.75
2019-05-26T13:00:54.660Z,92.09
2019-05-26T13:03:20.470Z,90.07
2019-05-26T13:05:48.868Z,90.80
2019-05-26T13:08:17.295Z,91.65
2019-05-26T13:10:45.707Z,92.88
2019-05-26T13:13:14.144Z,92.09
2019-05-26T13:15:42.546Z,93.71
2019-05-26T13:18:10.977Z,93.71
2019-05-26T13:20:39.515Z,93.19
2019-05-26T13:23:07.945Z,94.99
2019-05-26T13:25:36.358Z,94.70
2019-05-26T13:28:04.950Z,95.46
2019-05-26T13:30:34.686Z,95.53
2019-05-26T13:33:03.127Z,95.41
2019-05-26T13:35:31.532Z,91.88
2019-05-26T13:37:59.944Z,90.42
2019-05-26T13:40:29.724Z,89.59
2019-05-26T13:42:58.219Z,87.72
2019-05-26T13:45:26.657Z,83.75
2019-05-26T13:47:55.058Z,84.97
2019-05-26T13:50:23.560Z,83.23
2019-05-26T13:52:51.974Z,79.57
2019-05-26T13:55:21.254Z,82.77
2019-05-26T13:57:49.890Z,79.41
2019-05-26T14:00:18.849Z,78.06
2019-05-26T14:02:47.315Z,79.31
2019-05-26T14:05:16.913Z,80.31
2019-05-26T14:07:45.315Z,80.66
2019-05-26T14:10:14.089Z,81.45
2019-05-26T14:12:42.568Z,80.67
2019-05-26T14:15:11.373Z,81.66
2019-05-26T14:17:39.815Z,79.26
2019-05-26T14:20:09.285Z,78.70
2019-05-26T14:22:37.694Z,80.90
2019-05-26T14:25:07.057Z,79.92
2019-05-26T14:27:35.458Z,79.92
2019-05-26T14:30:05.128Z,80.78
2019-05-26T14:32:33.530Z,79.60
2019-05-26T14:35:01.977Z,79.17
2019-05-26T14:37:30.375Z,77.49
2019-05-26T14:39:58.798Z,77.26
2019-05-26T14:42:27.207Z,76.92
2019-05-26T14:44:55.645Z,76.75
2019-05-26T14:47:24.131Z,75.99
2019-05-26T14:49:52.531Z,78.08
2019-05-26T14:52:20.969Z,78.34
2019-05-26T14:54:49.372Z,79.47
2019-05-26T14:57:17.810Z,79.25
2019-05-26T14:59:46.232Z,79.82
2019-05-26T15:02:14.646Z,80.42
2019-05-26T15:04:43.075Z,79.99
2019-05-26T15:07:11.483Z,79.54
2019-05-26T15:09:39.885Z,79.48
2019-05-26T15:12:08.319Z,78.86
2019-05-26T15:14:36.725Z,80.19
2019-05-26T15:17:05.224Z,78.12
2019-05-26T15:19:33.633Z,78.78
2019-05-26T15:22:02.074Z,78.62
2019-05-26T15:24:30.459Z,78.92
2019-05-26T15:26:58.886Z,77.14
2019-05-26T15:29:27.292Z,75.15
2019-05-26T15:31:55.721Z,76.40
2019-05-26T15:34:24.127Z,76.73
2019-05-26T15:36:52.550Z,74.45
2019-05-26T15:39:20.961Z,75.04
2019-05-26T15:41:49.360Z,74.07
2019-05-26T15:44:17.786Z,74.80
2019-05-26T15:46:46.194Z,74.52
2019-05-26T15:49:14.631Z,74.20
2019-05-26T15:51:43.032Z,74.08
2019-05-26T15:54:11.470Z,74.99
2019-05-26T15:56:39.865Z,75.57
2019-05-26T15:59:08.300Z,74.62
2019-05-26T16:01:36.704Z,75.90
2019-05-26T16:04:05.216Z,75.77
2019-05-26T16:06:33.614Z,75.21
2019-05-26T16:09:02.039Z,76.16
2019-05-26T16:11:30.445Z,75.96
2019-05-26T16:13:58.904Z,76.71
2019-05-26T16:16:40.166Z,76.36
2019-05-26T16:18:57.453Z,77.29
2019-05-26T16:21:28.298Z,78.47
2019-05-26T16:23:56.012Z,79.07
2019-05-26T16:26:24.418Z,79.44
2019-05-26T16:28:52.847Z,79.05
2019-05-26T16:31:21.247Z,78.36
2019-05-26T16:33:49.749Z,77.95
2019-05-26T16:36:21.135Z,78.50
2019-05-26T16:38:48.318Z,78.69
2019-05-26T16:41:16.721Z,78.62
2019-05-26T16:43:45.155Z,77.63
2019-05-26T16:46:13.562Z,77.15
2019-05-26T16:48:41.992Z,77.52
2019-05-26T16:51:10.397Z,77.58
2019-05-26T16:53:38.847Z,78.12
2019-05-26T16:56:07.247Z,78.56
2019-05-26T16:58:35.656Z,77.93
2019-05-26T17:01:04.088Z,77.64
2019-05-26T17:03:32.503Z,77.58
2019-05-26T17:06:07.804Z,78.23
2019-05-26T17:08:31.070Z,78.20
2019-05-26T17:10:59.502Z,78.37
2019-05-26T17:13:27.909Z,79.05
2019-05-26T17:15:56.343Z,79.40
2019-05-26T17:18:24.751Z,79.97
2019-05-26T17:20:53.190Z,80.69
2019-05-26T17:23:21.647Z,79.95
2019-05-26T17:25:50.075Z,78.70
2019-05-26T17:28:18.475Z,78.15
2019-05-26T17:30:46.905Z,78.97
2019-05-26T17:33:15.304Z,80.04
2019-05-26T17:35:43.738Z,79.57
2019-05-26T17:38:12.141Z,80.17
2019-05-26T17:40:40.581Z,78.93
2019-05-26T17:43:08.979Z,79.56
2019-05-26T17:45:37.413Z,79.04
2019-05-26T17:48:05.814Z,78.55
2019-05-26T17:50:34.317Z,78.60
2019-05-26T17:53:02.723Z,78.65
2019-05-26T17:55:31.154Z,79.28
2019-05-26T17:57:59.561Z,79.16
2019-05-26T18:00:28.040Z,78.92
2019-05-26T18:02:56.467Z,78.85
2019-05-26T18:05:24.869Z,78.99
2019-05-26T18:07:53.299Z,78.98
2019-05-26T18:10:21.771Z,79.25
2019-05-26T18:12:50.200Z,79.04
2019-05-26T18:15:19.064Z,79.23
2019-05-26T18:17:47.964Z,78.21
2019-05-26T18:20:16.622Z,79.41
2019-05-26T18:22:45.098Z,78.94
2019-05-26T18:25:13.553Z,78.97
2019-05-26T18:27:41.973Z,78.40
2019-05-26T18:30:10.848Z,79.33
2019-05-26T18:32:39.342Z,79.13
2019-05-26T18:35:08.189Z,79.77
2019-05-26T18:37:36.618Z,79.99
2019-05-26T18:40:06.295Z,80.50
2019-05-26T18:42:34.725Z,81.67
2019-05-26T18:45:03.771Z,81.69
2019-05-26T18:47:32.202Z,81.55
2019-05-26T18:50:00.603Z,81.63
2019-05-26T18:52:29.031Z,82.18
2019-05-26T18:54:57.440Z,82.16
2019-05-26T18:57:25.874Z,82.78
2019-05-26T18:59:54.274Z,82.73
2019-05-26T19:02:22.704Z,83.05
2019-05-26T19:04:51.116Z,83.04
2019-05-26T19:07:19.542Z,83.60
2019-05-26T19:09:47.944Z,84.46
2019-05-26T19:12:16.850Z,84.50
2019-05-26T19:14:45.246Z,84.31
2019-05-26T19:17:13.798Z,85.08
2019-05-26T19:19:42.233Z,85.00
2019-05-26T19:22:10.701Z,86.28
2019-05-26T19:24:39.136Z,87.43
2019-05-26T19:27:07.679Z,89.10
2019-05-26T19:29:36.113Z,91.23
2019-05-26T19:32:04.857Z,94.27
2019-05-26T19:34:33.295Z,100.00
2019-05-26T19:37:01.715Z,100.00
2019-05-26T19:39:30.144Z,100.00
2019-05-26T19:41:58.554Z,100.00
2019-05-26T19:44:26.993Z,100.00
2019-05-26T19:46:55.413Z,100.00
2019-05-26T19:49:23.854Z,100.00
2019-05-26T19:51:52.264Z,100.00
2019-05-26T19:54:20.770Z,100.00
2019-05-26T19:56:49.187Z,100.00
2019-05-26T19:59:17.635Z,100.00
2019-05-26T20:01:46.043Z,100.00
2019-05-26T20:04:14.954Z,100.00
2019-05-26T20:06:44.123Z,100.00
2019-05-26T20:09:12.658Z,100.00
2019-05-26T20:11:41.070Z,100.00
2019-05-26T20:14:09.517Z,100.00
2019-05-26T20:16:37.933Z,100.00
2019-05-26T20:19:06.411Z,100.00
2019-05-26T20:21:34.851Z,100.00
2019-05-26T20:24:03.329Z,100.00
2019-05-26T20:26:31.769Z,100.00
2019-05-26T20:29:00.186Z,100.00
2019-05-26T20:31:28.622Z,100.00
2019-05-26T20:33:57.030Z,100.00
2019-05-26T20:36:25.472Z,100.00
2019-05-26T20:38:53.948Z,100.00
2019-05-26T20:41:22.384Z,100.00
2019-05-26T20:43:50.798Z,100.00
2019-05-26T20:46:19.233Z,100.00
2019-05-26T20:48:47.646Z,100.00
2019-05-26T20:51:16.082Z,100.00
2019-05-26T20:53:44.498Z,100.00
2019-05-26T20:56:12.934Z,100.00
2019-05-26T20:58:41.346Z,100.00
2019-05-26T21:01:09.786Z,100.00
2019-05-26T21:03:38.196Z,100.00
2019-05-26T21:06:06.636Z,100.00
2019-05-26T21:08:35.046Z,100.00
2019-05-26T21:11:03.491Z,100.00
2019-05-26T21:13:31.909Z,100.00
2019-05-26T21:16:00.346Z,100.00
2019-05-26T21:18:28.756Z,100.00
2019-05-26T21:20:57.198Z,100.00
2019-05-26T21:23:25.607Z,100.00
2019-05-26T21:25:54.050Z,100.00
2019-05-26T21:28:22.464Z,100.00
2019-05-26T21:30:50.905Z,100.00
2019-05-26T21:33:19.317Z,100.00
2019-05-26T21:35:47.749Z,100.00
2019-05-26T21:38:16.165Z,100.00
2019-05-26T21:40:44.574Z,100.00
2019-05-26T21:43:13.017Z,100.00
2019-05-26T21:45:41.436Z,100.00
2019-05-26T21:48:09.875Z,100.00
2019-05-26T21:50:38.364Z,100.00
2019-05-26T21:53:06.803Z,100.00
2019-05-26T21:55:35.223Z,100.00
2019-05-26T21:58:03.658Z,100.00
2019-05-26T22:00:36.931Z,100.00
2019-05-26T22:03:05.614Z,100.00
2019-05-26T22:05:34.090Z,100.00
2019-05-26T22:08:02.534Z,100.00
2019-05-26T22:10:30.962Z,100.00
2019-05-26T22:12:59.405Z,100.00
2019-05-26T22:15:27.821Z,100.00
2019-05-26T22:17:56.255Z,100.00
2019-05-26T22:20:24.670Z,100.00
2019-05-26T22:22:53.118Z,100.00
2019-05-26T22:25:21.561Z,100.00
2019-05-26T22:27:49.971Z,100.00
2019-05-26T22:30:18.560Z,100.00
2019-05-26T22:32:46.989Z,100.00
2019-05-26T22:35:15.402Z,100.00
2019-05-26T22:37:43.836Z,100.00
2019-05-26T22:40:12.394Z,100.00
2019-05-26T22:42:40.908Z,100.00
2019-05-26T22:45:09.553Z,100.00
2019-05-26T22:47:37.990Z,100.00
2019-05-26T22:50:08.838Z,100.00
2019-05-26T22:52:37.277Z,100.00
2019-05-26T22:55:09.404Z,100.00
2019-05-26T22:57:37.841Z,100.00
2019-05-26T23:00:10.540Z,100.00
2019-05-26T23:02:38.981Z,100.00
2019-05-26T23:05:08.135Z,100.00
2019-05-26T23:07:36.579Z,100.00
2019-05-26T23:10:09.360Z,100.00
2019-05-26T23:12:37.847Z,100.00
2019-05-26T23:15:08.428Z,100.00
2019-05-26T23:17:36.838Z,100.00
2019-05-26T23:20:07.789Z,100.00
2019-05-26T23:22:36.192Z,100.00
2019-05-26T23:25:05.668Z,100.00
2019-05-26T23:27:34.080Z,100.00
2019-05-26T23:30:03.090Z,100.00
2019-05-26T23:32:31.514Z,100.00
2019-05-26T23:35:00.016Z,100.00
2019-05-26T23:37:28.424Z,100.00
2019-05-26T23:39:56.866Z,100.00
2019-05-26T23:42:25.281Z,100.00
2019-05-26T23:44:53.720Z,100.00
2019-05-26T23:47:22.120Z,100.00
2019-05-26T23:49:50.560Z,100.00
2019-05-26T23:52:19.619Z,100.00
2019-05-26T23:54:48.087Z,100.00
2019-05-26T23:57:16.495Z,100.00
2019-05-26T23:59:44.925Z,100.00
